Time;durP1;ratioP1;P1;durP2;ratioP2;P2;SDS_P1;SDS_P2;PMS_P1;PMS_P2;Temp;Humidity;BMP_temperature;BMP_pressure;BME280_temperature;BME280_humidity;BME280_pressure;Samples;Min_cycle;Max_cycle;Signal;HPM_P1;HPM_P2
2022/11/29 00:01:59;;;;;;;1.73;1.58;;;;;;;4.59;73.69;100082.47;5056693;28;20314;-70
2022/11/29 00:04:28;;;;;;;1.80;1.10;;;;;;;4.60;73.33;100081.66;5056400;28;20060;-71
2022/11/29 00:06:56;;;;;;;4.60;1.95;;;;;;;4.63;73.58;100074.16;5056046;28;20045;-71
2022/11/29 00:09:26;;;;;;;3.53;1.75;;;;;;;4.66;73.55;100079.28;5056339;28;20040;-71
2022/11/29 00:14:34;;;;;;;1.05;1.05;;;;;;;4.57;73.80;100066.41;5056018;28;20049;-71
2022/11/29 00:17:04;;;;;;;1.85;1.73;;;;;;;4.60;73.27;100066.50;5056212;28;20068;-71
2022/11/29 00:19:34;;;;;;;0.77;0.77;;;;;;;4.61;73.78;100068.19;5055891;28;20041;-71
2022/11/29 00:22:03;;;;;;;1.35;1.30;;;;;;;4.57;73.62;100051.22;5055800;28;20045;-71
2022/11/29 00:24:32;;;;;;;1.77;1.67;;;;;;;4.63;73.83;100051.41;5055633;28;20041;-70
2022/11/29 00:27:01;;;;;;;1.95;1.85;;;;;;;4.60;73.64;100046.28;5055650;28;20492;-71
2022/11/29 00:29:30;;;;;;;2.20;2.00;;;;;;;4.62;73.50;100055.63;5054529;28;20045;-71
2022/11/29 00:32:00;;;;;;;1.27;1.00;;;;;;;4.63;73.39;100051.41;5055594;28;20505;-72
2022/11/29 00:34:29;;;;;;;0.95;0.95;;;;;;;4.64;73.46;100048.06;5055850;28;20079;-71
2022/11/29 00:36:58;;;;;;;3.67;1.77;;;;;;;4.46;73.52;100013.00;5055901;28;20041;-70
2022/11/29 00:39:26;;;;;;;1.67;1.58;;;;;;;4.65;73.78;100039.69;5055716;28;20573;-72
2022/11/29 00:41:55;;;;;;;0.75;0.75;;;;;;;4.64;73.33;100043.88;5055767;28;20406;-71
2022/11/29 00:44:24;;;;;;;8.32;1.50;;;;;;;4.65;73.84;100042.22;5054218;28;20380;-72
2022/11/29 00:46:52;;;;;;;0.70;0.70;;;;;;;4.64;73.68;100043.88;5055447;28;20502;-71
2022/11/29 00:49:23;;;;;;;1.85;1.73;;;;;;;4.63;73.38;100037.09;5055569;28;20481;-71
2022/11/29 00:51:52;;;;;;;0.82;0.82;;;;;;;4.63;73.91;100036.25;5055310;28;20079;-70
2022/11/29 00:54:21;;;;;;;1.38;1.27;;;;;;;4.64;73.49;100037.94;5055176;28;20040;-71
2022/11/29 00:56:49;;;;;;;0.52;0.52;;;;;;;4.66;73.55;100036.31;5055285;28;20083;-74
2022/11/29 00:59:18;;;;;;;1.58;1.48;;;;;;;4.67;73.80;100035.53;5055076;28;20071;-71
2022/11/29 01:01:47;;;;;;;1.55;1.45;;;;;;;4.67;73.44;100033.00;5055381;28;20041;-71
2022/11/29 01:04:17;;;;;;;1.00;0.98;;;;;;;4.51;73.27;100019.03;5053942;28;20048;-72
2022/11/29 01:06:50;;;;;;;0.88;0.88;;;;;;;4.67;73.24;100043.09;5054983;28;20091;-70
2022/11/29 01:09:19;;;;;;;0.93;0.93;;;;;;;4.66;73.23;100036.31;5055598;28;20395;-71
2022/11/29 01:11:49;;;;;;;1.05;1.05;;;;;;;4.68;73.26;100030.50;5054912;28;20049;-72
2022/11/29 01:14:18;;;;;;;2.45;1.05;;;;;;;4.67;73.00;100033.00;5054753;28;20045;-72
2022/11/29 01:16:46;;;;;;;1.92;1.80;;;;;;;4.67;72.84;100028.81;5054772;28;20517;-71
2022/11/29 01:19:15;;;;;;;1.48;1.38;;;;;;;4.70;72.81;100033.09;5055039;28;20041;-72
2022/11/29 01:21:44;;;;;;;1.10;1.02;;;;;;;4.69;72.75;100036.41;5054700;28;20041;-72
2022/11/29 01:24:14;;;;;;;1.27;1.17;;;;;;;4.69;72.70;100031.38;5054513;28;20491;-72
2022/11/29 01:26:43;;;;;;;2.85;2.25;;;;;;;4.69;72.50;100023.78;5054589;28;20051;-70
2022/11/29 01:29:14;;;;;;;1.40;1.30;;;;;;;4.68;72.61;100019.53;5054590;28;20128;-71
2022/11/29 01:31:42;;;;;;;0.82;0.82;;;;;;;4.65;72.46;100014.41;5054520;28;20098;-71
2022/11/29 01:34:11;;;;;;;5.50;3.38;;;;;;;4.69;72.87;100019.59;5055174;28;20383;-71
2022/11/29 01:36:40;;;;;;;1.80;1.70;;;;;;;4.64;72.89;100005.97;5054403;28;20041;-71
2022/11/29 01:39:08;;;;;;;1.00;0.98;;;;;;;4.73;72.74;100017.97;5053921;28;20041;-70
2022/11/29 01:41:38;;;;;;;0.80;0.80;;;;;;;4.72;72.80;100016.28;5054534;28;20041;-71
2022/11/29 01:44:38;;;;;;;5.47;2.00;;;;;;;4.72;72.57;100021.34;5054276;28;20048;-71
2022/11/29 01:47:10;;;;;;;;;;;;;;;4.71;72.89;100017.94;5053833;28;20037;-71
2022/11/29 01:49:42;;;;;;;0.77;0.77;;;;;;;4.70;73.05;100012.88;5055033;28;19921;-71
2022/11/29 01:52:16;;;;;;;0.68;0.68;;;;;;;4.71;72.61;100014.56;5054129;28;20048;-71
2022/11/29 01:54:49;;;;;;;0.98;0.98;;;;;;;4.71;72.69;100015.41;5054099;28;20048;-71
2022/11/29 01:57:20;;;;;;;0.60;0.60;;;;;;;4.74;72.87;100022.25;5053951;28;20045;-72
2022/11/29 01:59:54;;;;;;;0.70;0.70;;;;;;;4.61;72.40;100008.38;5053980;28;20048;-72
2022/11/29 02:02:31;;;;;;;1.15;0.75;;;;;;;4.75;72.64;100021.44;5054301;28;20060;-70
2022/11/29 02:05:02;;;;;;;1.10;0.93;;;;;;;4.59;72.44;100006.63;5054145;28;20041;-71
2022/11/29 02:07:31;;;;;;;1.00;1.00;;;;;;;4.73;72.74;100012.94;5054124;28;20131;-71
2022/11/29 02:09:59;;;;;;;1.93;1.70;;;;;;;4.69;73.23;100013.66;5053999;28;20055;-71
2022/11/29 02:12:40;;;;;;;2.90;2.00;;;;;;;4.73;73.07;100023.91;5052834;28;20037;-71
2022/11/29 02:15:27;;;;;;;1.27;1.17;;;;;;;4.75;73.06;100022.25;5054001;28;20281;-70
2022/11/29 02:18:04;;;;;;;2.17;1.00;;;;;;;4.61;73.07;99987.31;5053973;28;20041;-71
2022/11/29 02:21:02;;;;;;;1.23;1.15;;;;;;;4.73;73.17;100025.56;5053898;28;20083;-71
2022/11/29 02:24:06;;;;;;;0.60;0.60;;;;;;;4.63;73.42;100005.94;5053597;28;20033;-71
2022/11/29 02:26:59;;;;;;;0.57;0.57;;;;;;;4.68;73.63;100019.53;5030641;28;20037;-70
2022/11/29 02:29:56;;;;;;;1.65;1.55;;;;;;;4.69;73.83;100031.38;5053484;28;20052;-71
2022/11/29 02:32:53;;;;;;;0.80;0.80;;;;;;;4.67;74.06;100027.94;5053808;28;20033;-71
2022/11/29 02:35:39;;;;;;;14.85;3.17;;;;;;;4.67;73.84;100031.34;5053577;28;20041;-71
2022/11/29 02:38:32;;;;;;;5.65;0.98;;;;;;;4.13;74.21;99945.53;5053442;28;20056;-71
2022/11/29 02:41:13;;;;;;;2.05;1.08;;;;;;;4.60;74.28;100010.88;5053929;28;20059;-71
2022/11/29 02:44:01;;;;;;;1.95;1.85;;;;;;;4.66;74.07;100022.00;5053691;28;20394;-71
2022/11/29 02:46:56;;;;;;;2.33;1.25;;;;;;;4.54;74.24;100020.81;5053339;28;20125;-72
2022/11/29 02:49:45;;;;;;;1.77;1.67;;;;;;;4.61;74.31;100035.31;5053828;28;20091;-72
2022/11/29 02:52:22;;;;;;;1.00;0.82;;;;;;;4.64;74.29;100037.94;5057989;28;20131;-72
2022/11/29 02:54:59;;;;;;;1.67;1.58;;;;;;;4.63;74.15;100037.09;5057476;28;20045;-71
2022/11/29 02:57:36;;;;;;;2.78;1.95;;;;;;;4.62;74.15;100035.41;5057465;28;20118;-72
2022/11/29 03:00:09;;;;;;;0.70;0.70;;;;;;;4.58;74.11;100027.69;5056334;28;20045;-70
2022/11/29 03:02:45;;;;;;;0.90;0.90;;;;;;;4.65;74.64;100042.22;5057366;28;20140;-70
2022/11/29 03:05:24;;;;;;;1.33;1.23;;;;;;;4.57;74.72;100036.94;5057247;28;20045;-71
2022/11/29 03:08:00;;;;;;;1.02;0.93;;;;;;;4.64;74.58;100053.13;5057453;28;20045;-70
2022/11/29 03:10:39;;;;;;;1.48;1.38;;;;;;;4.62;74.78;100045.50;5057184;28;20056;-71
2022/11/29 03:13:18;;;;;;;0.57;0.57;;;;;;;4.59;74.91;100034.44;5057502;28;20052;-71
2022/11/29 03:15:57;;;;;;;0.73;0.73;;;;;;;4.57;75.01;100047.03;5057150;28;20045;-71
2022/11/29 03:18:41;;;;;;;2.70;2.50;;;;;;;4.56;75.03;100060.47;5057313;28;20687;-71
2022/11/29 03:21:24;;;;;;;0.90;0.90;;;;;;;4.54;75.45;100056.19;5057033;28;20037;-72
2022/11/29 03:23:57;;;;;;;1.73;1.63;;;;;;;4.53;75.31;100065.47;5057306;28;20048;-71
2022/11/29 03:26:32;;;;;;;0.90;0.80;;;;;;;4.56;75.78;100067.19;5057146;28;20442;-70
2022/11/29 03:29:07;;;;;;;0.68;0.68;;;;;;;4.51;75.65;100061.19;5057122;28;20049;-71
2022/11/29 03:31:42;;;;;;;2.58;2.35;;;;;;;4.49;76.03;100052.66;5056842;28;20075;-71
2022/11/29 03:34:21;;;;;;;2.78;2.38;;;;;;;4.52;75.90;100067.94;5056834;28;20064;-71
2022/11/29 03:36:58;;;;;;;0.75;0.75;;;;;;;4.53;76.03;100074.72;5057041;28;20129;-72
2022/11/29 03:39:34;;;;;;;1.83;1.67;;;;;;;4.45;76.00;100066.03;5056591;28;20053;-71
2022/11/29 03:42:08;;;;;;;1.52;1.10;;;;;;;4.53;75.90;100073.03;5057231;28;20049;-71
2022/11/29 03:44:45;;;;;;;0.85;0.85;;;;;;;4.56;75.79;100077.31;5056862;28;20533;-72
2022/11/29 03:47:20;;;;;;;4.28;1.25;;;;;;;4.56;76.17;100077.31;5056433;28;20068;-70
2022/11/29 03:49:54;;;;;;;0.73;0.73;;;;;;;4.53;75.83;100069.66;5056724;28;20077;-71
2022/11/29 03:52:32;;;;;;;3.70;1.90;;;;;;;4.51;75.81;100062.00;5056703;28;20122;-71
2022/11/29 03:55:15;;;;;;;0.68;0.68;;;;;;;4.59;76.19;100074.88;5056660;28;20562;-70
2022/11/29 03:57:51;;;;;;;0.80;0.80;;;;;;;4.58;75.85;100081.59;5056153;28;20102;-70
2022/11/29 04:00:21;;;;;;;0.30;0.30;;;;;;;4.55;75.53;100078.13;5056100;28;20041;-71
2022/11/29 04:03:17;;;;;;;2.22;1.80;;;;;;;4.51;75.75;100079.69;5056455;28;20041;-71
2022/11/29 04:06:08;;;;;;;1.23;1.13;;;;;;;4.49;75.75;100081.31;5056349;28;20060;-71
2022/11/29 04:09:00;;;;;;;0.50;0.50;;;;;;;4.51;75.93;100081.41;5056650;28;20106;-71
2022/11/29 04:12:00;;;;;;;0.40;0.40;;;;;;;4.54;75.87;100086.50;5056264;28;20045;-70
2022/11/29 04:14:43;;;;;;;0.93;0.93;;;;;;;4.54;76.10;100091.56;5055983;28;20076;-71
2022/11/29 04:17:32;;;;;;;0.60;0.60;;;;;;;4.52;76.03;100088.16;5055951;28;20049;-71
2022/11/29 04:20:33;;;;;;;0.70;0.70;;;;;;;4.50;75.75;100092.31;5055897;28;20060;-71
2022/11/29 04:23:43;;;;;;;2.33;1.77;;;;;;;4.48;75.39;100089.75;5054429;28;20330;-71
2022/11/29 04:26:39;;;;;;;1.33;1.25;;;;;;;4.49;75.67;100093.97;5053985;28;20037;-70
2022/11/29 04:29:29;;;;;;;1.20;1.00;;;;;;;4.52;75.74;100099.13;5055702;28;20128;-71
2022/11/29 04:32:23;;;;;;;1.42;1.33;;;;;;;4.52;75.89;100093.19;5055595;28;20053;-71
2022/11/29 04:35:15;;;;;;;0.70;0.70;;;;;;;4.56;75.60;100105.09;5056177;28;20186;-71
2022/11/29 04:38:06;;;;;;;3.38;1.70;;;;;;;4.55;75.50;100098.34;5055587;28;20053;-71
2022/11/29 04:41:06;;;;;;;2.88;2.55;;;;;;;4.56;75.71;100100.91;5055745;28;20064;-71
2022/11/29 04:43:51;;;;;;;;;;;;;;;4.57;75.81;100101.78;5056146;28;20037;-71
2022/11/29 04:46:49;;;;;;;0.50;0.50;;;;;;;4.53;75.78;100107.56;5055603;28;19920;-71
2022/11/29 04:49:34;;;;;;;0.63;0.63;;;;;;;4.52;75.69;100103.31;5050854;28;20041;-70
2022/11/29 04:52:27;;;;;;;1.38;1.27;;;;;;;4.55;75.59;100108.47;5055218;28;20099;-71
2022/11/29 04:55:08;;;;;;;1.60;1.50;;;;;;;4.56;75.93;100107.63;5055192;28;20037;-71
2022/11/29 04:57:44;;;;;;;0.80;0.77;;;;;;;4.56;75.77;100115.22;5054981;28;20098;-70
2022/11/29 05:00:19;;;;;;;2.40;0.77;;;;;;;4.54;75.37;100111.78;5055488;28;20061;-71
2022/11/29 05:02:55;;;;;;;2.70;1.40;;;;;;;4.49;75.55;100108.25;5055393;28;20053;-71
2022/11/29 05:05:33;;;;;;;5.38;3.03;;;;;;;4.51;75.65;100112.56;5055071;28;20096;-71
2022/11/29 05:08:20;;;;;;;4.18;2.25;;;;;;;4.51;76.03;100111.72;5054928;28;20041;-71
2022/11/29 05:11:04;;;;;;;1.48;1.15;;;;;;;4.45;75.97;100111.53;5054044;28;20059;-71
2022/11/29 05:13:44;;;;;;;0.68;0.68;;;;;;;4.48;76.13;100116.66;5053955;28;20053;-70
2022/11/29 05:16:33;;;;;;;0.93;0.88;;;;;;;4.45;76.04;100109.84;5055146;28;20057;-71
2022/11/29 05:19:26;;;;;;;1.88;1.77;;;;;;;4.48;76.33;100116.66;5054878;28;20052;-71
2022/11/29 05:22:05;;;;;;;0.65;0.65;;;;;;;4.45;75.80;100112.38;5054940;28;20037;-71
2022/11/29 05:24:55;;;;;;;1.17;1.13;;;;;;;4.47;75.96;100112.41;5054720;28;20075;-71
2022/11/29 05:27:40;;;;;;;2.53;1.63;;;;;;;4.47;75.71;100125.06;5054825;28;20131;-71
2022/11/29 05:30:13;;;;;;;1.85;1.75;;;;;;;4.47;75.87;100122.53;5054997;28;20053;-71
2022/11/29 05:32:56;;;;;;;3.67;1.67;;;;;;;4.46;76.21;100123.34;5054960;28;20045;-71
2022/11/29 05:35:53;;;;;;;0.73;0.73;;;;;;;4.44;76.29;100119.94;5054777;28;20103;-71
2022/11/29 05:38:54;;;;;;;1.55;1.38;;;;;;;4.42;76.32;100135.03;5054354;28;20094;-71
2022/11/29 05:41:39;;;;;;;2.75;2.55;;;;;;;4.37;76.46;100118.84;5050502;28;20049;-70
2022/11/29 05:44:13;;;;;;;1.95;1.85;;;;;;;4.16;76.61;100098.00;5053125;28;20056;-72
2022/11/29 05:46:54;;;;;;;2.17;2.00;;;;;;;4.32;76.65;100140.59;5054190;28;20056;-71
2022/11/29 05:49:35;;;;;;;1.90;1.50;;;;;;;4.35;76.94;100139.84;5054198;28;20057;-70
2022/11/29 05:52:20;;;;;;;2.03;1.90;;;;;;;4.37;76.47;100143.25;5053206;28;20049;-70
2022/11/29 05:55:04;;;;;;;1.23;1.00;;;;;;;4.36;76.28;100136.50;5054207;28;20048;-71
2022/11/29 05:57:44;;;;;;;1.17;1.17;;;;;;;4.38;76.13;100140.81;5053854;28;20049;-70
2022/11/29 06:00:17;;;;;;;1.05;0.95;;;;;;;4.39;76.38;100146.72;5054090;28;20076;-71
2022/11/29 06:02:56;;;;;;;1.77;1.67;;;;;;;4.43;76.29;100153.56;5054251;28;20053;-71
2022/11/29 06:05:35;;;;;;;1.30;1.25;;;;;;;4.43;75.85;100143.47;5054239;28;20049;-71
2022/11/29 06:08:08;;;;;;;3.63;2.10;;;;;;;4.41;75.87;100151.00;5053764;28;20136;-71
2022/11/29 06:10:41;;;;;;;1.13;1.02;;;;;;;4.37;75.92;100153.38;5054170;28;20395;-71
2022/11/29 06:13:21;;;;;;;1.05;1.02;;;;;;;4.37;76.04;100155.91;5054073;28;20132;-71
2022/11/29 06:16:13;;;;;;;1.42;1.33;;;;;;;4.36;75.86;100156.72;5054078;28;20055;-70
2022/11/29 06:19:00;;;;;;;0.75;0.75;;;;;;;4.34;76.11;100154.16;5053750;28;20550;-71
2022/11/29 06:21:41;;;;;;;2.90;1.15;;;;;;;4.34;75.94;100158.34;5054114;28;20079;-71
2022/11/29 06:24:37;;;;;;;2.38;2.17;;;;;;;4.35;75.61;100160.03;5053552;28;20076;-71
2022/11/29 06:27:28;;;;;;;1.40;1.10;;;;;;;4.35;75.75;100155.00;5052043;28;20041;-71
2022/11/29 06:30:05;;;;;;;0.75;0.65;;;;;;;4.35;75.48;100162.56;5053773;28;20053;-71
2022/11/29 06:32:40;;;;;;;1.33;0.73;;;;;;;4.37;75.35;100163.47;5053585;28;20049;-71
2022/11/29 06:35:21;;;;;;;5.95;3.22;;;;;;;4.37;75.26;100169.38;5053454;28;20053;-71
2022/11/29 06:37:55;;;;;;;0.80;0.80;;;;;;;4.37;75.64;100174.44;5054087;28;20076;-71
2022/11/29 06:40:25;;;;;;;0.75;0.75;;;;;;;4.19;75.42;100152.78;5053362;28;20487;-70
2022/11/29 06:42:53;;;;;;;;;;;;;;;4.37;75.16;100183.69;5053899;28;20513;-71
2022/11/29 06:45:22;;;;;;;1.67;1.58;;;;;;;4.31;75.27;100173.41;5053956;28;20039;-70
2022/11/29 06:47:58;;;;;;;1.70;1.60;;;;;;;4.28;75.61;100178.34;5053135;28;20065;-70
2022/11/29 06:50:38;;;;;;;3.20;1.27;;;;;;;4.29;75.96;100185.13;5053659;28;20056;-71
2022/11/29 06:53:20;;;;;;;1.42;1.30;;;;;;;4.24;75.79;100186.66;5053550;28;20049;-71
2022/11/29 06:55:58;;;;;;;1.45;1.35;;;;;;;4.29;76.28;100188.53;5052615;28;20541;-70
2022/11/29 06:58:45;;;;;;;1.25;1.15;;;;;;;4.36;76.48;100192.09;5053058;28;20052;-70
2022/11/29 07:01:23;;;;;;;1.58;1.48;;;;;;;4.40;76.61;100189.72;5051955;28;20037;-70
2022/11/29 07:04:23;;;;;;;1.77;1.60;;;;;;;4.51;76.43;100188.38;5053129;28;20048;-71
2022/11/29 07:06:53;;;;;;;10.35;5.00;;;;;;;4.52;76.29;100194.28;5053137;28;20132;-71
2022/11/29 07:09:28;;;;;;;2.42;2.22;;;;;;;4.51;76.27;100200.16;5053346;28;20049;-71
2022/11/29 07:11:57;;;;;;;1.98;1.83;;;;;;;4.53;75.74;100193.50;5052279;28;20056;-71
2022/11/29 07:14:26;;;;;;;0.80;0.80;;;;;;;4.54;75.75;100187.59;5053055;28;20076;-71
2022/11/29 07:17:04;;;;;;;0.88;0.88;;;;;;;4.53;75.27;100201.06;5053031;28;20045;-71
2022/11/29 07:19:42;;;;;;;1.40;1.30;;;;;;;3.80;75.52;100090.09;5053341;28;20506;-72
2022/11/29 07:22:26;;;;;;;1.00;0.98;;;;;;;4.46;76.09;100194.13;5052962;28;20045;-71
2022/11/29 07:25:02;;;;;;;0.98;0.90;;;;;;;4.45;76.22;100189.84;5053019;28;20158;-71
2022/11/29 07:27:41;;;;;;;1.10;1.00;;;;;;;4.49;76.35;100194.19;5052794;28;20056;-71
2022/11/29 07:30:14;;;;;;;2.30;2.15;;;;;;;4.52;76.32;100196.81;5052930;28;20491;-72
2022/11/29 07:32:58;;;;;;;18.02;1.95;;;;;;;4.56;76.29;100206.19;5051699;28;20052;-72
2022/11/29 07:35:35;;;;;;;1.35;1.25;;;;;;;4.56;76.43;100206.19;5053696;28;20045;-72
2022/11/29 07:38:14;;;;;;;0.88;0.85;;;;;;;4.53;76.52;100208.66;5057040;28;20045;-71
2022/11/29 07:40:54;;;;;;;2.50;0.85;;;;;;;4.56;76.44;100209.59;5056585;28;20048;-71
2022/11/29 07:43:32;;;;;;;3.50;2.47;;;;;;;4.62;76.33;100207.28;5056631;28;20076;-71
2022/11/29 07:46:01;;;;;;;1.60;1.50;;;;;;;4.65;76.64;100211.56;5056984;28;20053;-72
2022/11/29 07:48:30;;;;;;;2.53;1.60;;;;;;;4.69;76.16;100208.31;5056270;28;20044;-72
2022/11/29 07:51:00;;;;;;;1.25;1.15;;;;;;;4.65;76.62;100196.41;5056415;28;20045;-71
2022/11/29 07:53:29;;;;;;;1.10;1.00;;;;;;;4.74;76.59;100211.84;5056434;28;20084;-71
2022/11/29 07:55:59;;;;;;;1.10;1.08;;;;;;;4.77;76.14;100208.56;5056386;28;20037;-71
2022/11/29 07:58:28;;;;;;;1.05;1.05;;;;;;;4.82;76.66;100205.38;5051232;28;20052;-72
2022/11/29 08:00:56;;;;;;;0.80;0.80;;;;;;;4.87;76.54;100206.34;5055916;28;20064;-71
2022/11/29 08:03:25;;;;;;;1.60;1.50;;;;;;;4.92;76.41;100207.34;5056202;28;20037;-72
2022/11/29 08:05:54;;;;;;;0.70;0.70;;;;;;;4.98;76.12;100201.59;5056447;28;20041;-71
2022/11/29 08:08:23;;;;;;;1.52;1.42;;;;;;;5.06;76.03;100201.00;5056014;28;20147;-71
2022/11/29 08:10:52;;;;;;;0.70;0.70;;;;;;;5.12;75.63;100196.16;5055960;28;20059;-71
2022/11/29 08:13:22;;;;;;;1.58;1.48;;;;;;;5.18;75.75;100203.91;5053788;28;20049;-73
2022/11/29 08:15:51;;;;;;;2.13;1.38;;;;;;;5.25;75.25;100203.28;5049634;28;20079;-74
2022/11/29 08:18:19;;;;;;;1.02;0.98;;;;;;;5.31;75.38;100203.44;5051537;28;20398;-73
2022/11/29 08:20:48;;;;;;;0.60;0.60;;;;;;;5.36;75.19;100208.63;5055895;28;20052;-71
2022/11/29 08:23:16;;;;;;;1.75;1.65;;;;;;;5.42;74.94;100209.66;5054895;28;20040;-71
2022/11/29 08:25:45;;;;;;;1.80;1.70;;;;;;;5.41;74.49;100195.31;5050240;28;20037;-71
2022/11/29 08:28:14;;;;;;;12.23;2.35;;;;;;;5.55;74.29;100202.41;5040797;28;20053;-71
2022/11/29 08:30:44;;;;;;;1.00;0.98;;;;;;;5.56;74.22;100211.72;5052737;28;20071;-71
2022/11/29 08:33:12;;;;;;;2.42;2.22;;;;;;;5.64;74.55;100212.81;5055710;28;20123;-70
2022/11/29 08:35:41;;;;;;;0.60;0.60;;;;;;;5.67;74.00;100207.81;5055759;28;20103;-71
2022/11/29 08:38:09;;;;;;;1.30;1.20;;;;;;;5.76;73.71;100218.22;5056108;28;20550;-71
2022/11/29 08:40:38;;;;;;;6.68;4.10;;;;;;;5.78;73.37;100219.09;5053128;28;20125;-71
2022/11/29 08:43:06;;;;;;;2.35;2.20;;;;;;;5.84;73.26;100219.25;5043987;28;20538;-71
2022/11/29 08:45:35;;;;;;;1.25;1.15;;;;;;;5.89;72.78;100225.34;5039964;28;20049;-71
2022/11/29 08:48:06;;;;;;;2.47;2.28;;;;;;;5.92;73.04;100225.44;5034452;28;20522;-71
2022/11/29 08:50:35;;;;;;;1.10;1.02;;;;;;;5.98;72.73;100220.50;5035675;28;20403;-70
2022/11/29 08:55:45;;;;;;;25.85;2.33;;;;;;;6.22;72.27;100226.19;5035353;28;20095;-71
2022/11/29 08:58:15;;;;;;;2.00;1.38;;;;;;;6.26;72.18;100217.88;5034129;28;20507;-72
2022/11/29 09:00:46;;;;;;;0.77;0.77;;;;;;;6.31;71.63;100220.53;5035691;28;20049;-72
2022/11/29 09:05:53;;;;;;;1.85;1.75;;;;;;;6.25;70.44;100223.75;5035137;28;19921;-71
2022/11/29 09:08:22;;;;;;;1.40;1.30;;;;;;;6.25;70.71;100225.44;5034950;28;20033;-72
2022/11/29 09:10:52;;;;;;;1.70;1.60;;;;;;;6.32;70.30;100228.16;5034930;28;20045;-71
2022/11/29 09:13:21;;;;;;;1.83;1.67;;;;;;;6.40;70.76;100231.75;5035452;28;20496;-71
2022/11/29 09:15:49;;;;;;;1.73;1.63;;;;;;;6.43;70.49;100226.72;5039318;28;20051;-71
2022/11/29 09:18:19;;;;;;;1.38;1.27;;;;;;;6.53;70.65;100222.75;5054548;28;20069;-71
2022/11/29 09:20:48;;;;;;;1.52;1.35;;;;;;;6.68;71.22;100223.97;5054957;28;20068;-71
2022/11/29 09:23:17;;;;;;;1.98;1.77;;;;;;;6.95;70.76;100225.44;5054535;28;20503;-71
2022/11/29 09:25:48;;;;;;;1.63;1.42;;;;;;;7.14;70.18;100225.00;5054607;28;20041;-71
2022/11/29 09:28:17;;;;;;;1.15;1.05;;;;;;;7.27;69.49;100216.84;5054531;28;20041;-72
2022/11/29 09:30:45;;;;;;;2.40;1.45;;;;;;;7.25;68.39;100214.25;5054481;28;20041;-72
2022/11/29 09:33:14;;;;;;;0.60;0.60;;;;;;;7.29;67.80;100212.66;5054404;28;20041;-72
2022/11/29 09:35:44;;;;;;;1.63;1.52;;;;;;;7.23;66.24;100200.66;5054694;28;20399;-72
2022/11/29 09:38:14;;;;;;;4.30;2.15;;;;;;;7.16;65.53;100187.81;5054700;28;20067;-71
2022/11/29 09:40:48;;;;;;;4.90;2.30;;;;;;;7.41;65.92;100202.75;5054255;28;20518;-71
2022/11/29 09:43:27;;;;;;;2.13;2.03;;;;;;;7.49;65.75;100198.66;5054610;28;20094;-71
2022/11/29 09:46:05;;;;;;;0.38;0.38;;;;;;;7.51;65.00;100202.06;5054257;28;20045;-73
2022/11/29 09:48:56;;;;;;;1.60;1.38;;;;;;;7.42;63.77;100202.75;5053638;28;20055;-71
2022/11/29 09:51:31;;;;;;;0.88;0.70;;;;;;;7.42;64.18;100196.81;5051652;28;20041;-71
2022/11/29 09:54:17;;;;;;;0.90;0.85;;;;;;;7.34;63.82;100193.28;5053808;28;20438;-72
2022/11/29 09:56:50;;;;;;;0.73;0.73;;;;;;;7.35;63.05;100189.91;5050333;28;20041;-72
2022/11/29 09:59:22;;;;;;;1.15;1.05;;;;;;;7.49;63.33;100192.72;5053341;28;20135;-71
2022/11/29 10:01:54;;;;;;;1.48;1.38;;;;;;;7.46;62.98;100191.00;5054155;28;20495;-70
2022/11/29 10:04:29;;;;;;;0.70;0.70;;;;;;;7.40;61.89;100186.63;5054206;28;20402;-72
2022/11/29 10:07:04;;;;;;;1.10;1.00;;;;;;;7.38;62.57;100195.06;5054015;28;20061;-71
2022/11/29 10:09:39;;;;;;;0.68;0.68;;;;;;;7.33;62.40;100183.94;5053831;28;20049;-71
2022/11/29 10:12:17;;;;;;;0.60;0.60;;;;;;;7.38;62.46;100195.91;5053851;28;20037;-71
2022/11/29 10:14:50;;;;;;;0.73;0.73;;;;;;;7.37;62.22;100185.72;5053766;28;20096;-71
2022/11/29 10:17:32;;;;;;;0.70;0.70;;;;;;;7.31;61.82;100180.53;5052985;28;20156;-72
2022/11/29 10:20:10;;;;;;;0.63;0.63;;;;;;;7.27;61.86;100181.31;5053567;28;20075;-72
2022/11/29 10:22:48;;;;;;;1.30;1.20;;;;;;;7.22;61.66;100177.81;5053582;28;20045;-70
2022/11/29 10:25:24;;;;;;;1.30;1.02;;;;;;;7.20;62.16;100187.91;5053877;28;20128;-71
2022/11/29 10:27:54;;;;;;;1.02;1.00;;;;;;;7.18;62.39;100176.88;5054033;28;20487;-72
2022/11/29 10:30:23;;;;;;;10.55;2.30;;;;;;;7.16;62.35;100177.66;5052340;28;20054;-70
2022/11/29 10:32:56;;;;;;;3.17;2.78;;;;;;;7.21;61.99;100174.41;5053705;28;20045;-71
2022/11/29 10:35:25;;;;;;;1.60;1.08;;;;;;;7.25;62.02;100170.22;5053761;28;20120;-71
2022/11/29 10:37:59;;;;;;;0.50;0.50;;;;;;;7.37;62.44;100157.78;5043034;28;20080;-70
2022/11/29 10:40:51;;;;;;;1.75;1.65;;;;;;;7.65;62.10;100164.25;5038969;28;20038;-71
2022/11/29 10:43:20;;;;;;;1.15;1.10;;;;;;;7.66;60.96;100161.72;5044454;28;20041;-71
2022/11/29 10:45:54;;;;;;;0.52;0.52;;;;;;;7.70;60.91;100166.03;5049681;28;20041;-71
2022/11/29 10:48:27;;;;;;;3.15;1.40;;;;;;;7.70;60.60;100160.94;5051262;28;20444;-71
2022/11/29 10:50:56;;;;;;;1.38;1.17;;;;;;;7.57;60.96;100131.09;5052755;28;20414;-71
2022/11/29 10:53:29;;;;;;;1.52;1.42;;;;;;;7.72;60.44;100161.00;5052817;28;20071;-72
2022/11/29 10:56:03;;;;;;;0.55;0.55;;;;;;;7.67;61.00;100162.59;5033831;28;20049;-71
2022/11/29 10:58:32;;;;;;;1.17;1.15;;;;;;;7.67;60.74;100157.53;5033336;28;20092;-71
2022/11/29 11:01:05;;;;;;;0.77;0.60;;;;;;;7.71;61.30;100155.06;5033822;28;20538;-71
2022/11/29 11:03:39;;;;;;;1.05;0.95;;;;;;;7.70;60.91;100148.25;5033225;28;20132;-71
2022/11/29 11:06:14;;;;;;;0.40;0.40;;;;;;;7.49;60.88;100132.63;5033303;28;20048;-72
2022/11/29 11:08:48;;;;;;;2.47;1.77;;;;;;;7.50;61.29;100149.59;5016512;28;20057;-72
2022/11/29 11:11:26;;;;;;;1.08;0.95;;;;;;;7.53;60.73;100151.34;5034960;28;20073;-72
2022/11/29 11:14:00;;;;;;;1.45;0.60;;;;;;;7.15;60.59;100069.38;5056614;28;20083;-72
2022/11/29 11:16:29;;;;;;;1.90;1.33;;;;;;;7.78;60.64;100156.88;5056994;28;20514;-71
2022/11/29 11:19:27;;;;;;;0.68;0.68;;;;;;;7.76;60.84;100148.38;5057147;28;20053;-72
2022/11/29 11:21:57;;;;;;;1.02;0.98;;;;;;;7.55;60.35;100131.88;5056872;28;20045;-71
2022/11/29 11:24:28;;;;;;;;;;;;;;;7.66;60.18;100159.19;5057643;28;20043;-70
2022/11/29 11:26:58;;;;;;;1.20;1.08;;;;;;;7.62;60.33;100149.81;5053638;28;19921;-70
2022/11/29 11:29:35;;;;;;;0.95;0.93;;;;;;;7.60;60.49;100151.47;5056761;28;20045;-70
2022/11/29 11:32:07;;;;;;;0.60;0.60;;;;;;;7.59;60.40;100159.91;5053594;28;20131;-69
2022/11/29 11:34:38;;;;;;;1.02;0.93;;;;;;;7.58;60.66;100152.28;5056729;28;20517;-71
2022/11/29 11:37:25;;;;;;;3.92;1.58;;;;;;;7.59;60.08;100144.66;5056719;28;20045;-72
2022/11/29 11:39:57;;;;;;;0.98;0.95;;;;;;;7.65;61.29;100154.09;5056613;28;20059;-72
2022/11/29 11:45:32;;;;;;;0.80;0.73;;;;;;;7.72;59.75;100150.84;5056838;28;20397;-72
2022/11/29 11:48:10;;;;;;;0.88;0.88;;;;;;;7.80;60.43;100147.59;5056455;28;20072;-71
2022/11/29 11:50:44;;;;;;;6.78;2.60;;;;;;;8.01;60.38;100145.41;5056329;28;20049;-70
2022/11/29 11:53:22;;;;;;;1.70;1.50;;;;;;;8.15;59.99;100137.19;5057003;28;20041;-71
2022/11/29 11:55:59;;;;;;;1.10;1.10;;;;;;;8.22;59.31;100133.91;5056403;28;20045;-71
2022/11/29 11:58:31;;;;;;;0.70;0.70;;;;;;;8.40;59.41;100137.59;5056102;28;20060;-71
2022/11/29 12:01:14;;;;;;;1.80;1.70;;;;;;;8.59;58.56;100131.97;5056231;28;20041;-70
2022/11/29 12:03:52;;;;;;;0.65;0.65;;;;;;;8.83;57.76;100138.25;5056260;28;20079;-71
2022/11/29 12:06:41;;;;;;;1.63;1.53;;;;;;;9.17;57.33;100133.59;5056271;28;20045;-72
2022/11/29 12:09:18;;;;;;;1.65;0.95;;;;;;;9.43;55.91;100132.19;5056018;28;20276;-72
2022/11/29 12:11:58;;;;;;;1.60;1.45;;;;;;;9.63;55.37;100134.97;5056035;28;20095;-69
2022/11/29 12:14:37;;;;;;;0.60;0.60;;;;;;;9.64;54.28;100130.72;5055887;28;20060;-71
2022/11/29 12:17:16;;;;;;;0.47;0.47;;;;;;;9.93;53.19;100140.34;5056378;28;20156;-70
2022/11/29 12:20:03;;;;;;;0.73;0.73;;;;;;;10.08;53.04;100139.63;5055418;28;20294;-72
2022/11/29 12:22:39;;;;;;;0.55;0.55;;;;;;;10.21;52.79;100140.63;5051348;28;20041;-72
2022/11/29 12:25:21;;;;;;;0.55;0.55;;;;;;;10.07;52.45;100137.94;5035843;28;20052;-72
2022/11/29 12:27:51;;;;;;;1.73;1.60;;;;;;;10.06;52.45;100131.13;5035930;28;20061;-71
2022/11/29 12:30:20;;;;;;;1.13;1.02;;;;;;;10.02;52.63;100135.34;5035724;28;20395;-70